sensor_id;sensor_type;location;lat;lon;timestamp;temperature;humidity
9941;DHT22;5009;50.656;7.188;2022-12-11T05:02:45;1.00;99.90
9941;DHT22;5009;50.656;7.188;2022-12-11T05:05:11;1.10;99.90
9941;DHT22;5009;50.656;7.188;2022-12-11T05:07:37;1.10;99.90
9941;DHT22;5009;50.656;7.188;2022-12-11T05:10:04;1.20;99.90
9941;DHT22;5009;50.656;7.188;2022-12-11T05:12:31;1.10;99.90
9941;DHT22;5009;50.656;7.188;2022-12-11T05:14:57;1.20;99.90
9941;DHT22;5009;50.656;7.188;2022-12-11T05:17:22;1.10;99.90
9941;DHT22;5009;50.656;7.188;2022-12-11T05:19:49;1.20;99.90
9941;DHT22;5009;50.656;7.188;2022-12-11T05:22:16;1.00;99.90
9941;DHT22;5009;50.656;7.188;2022-12-11T05:24:41;0.90;99.90
9941;DHT22;5009;50.656;7.188;2022-12-11T05:27:07;0.90;99.90
9941;DHT22;5009;50.656;7.188;2022-12-11T05:29:33;1.00;99.90
9941;DHT22;5009;50.656;7.188;2022-12-11T05:31:58;1.10;99.90
9941;DHT22;5009;50.656;7.188;2022-12-11T05:34:24;1.10;99.90
9941;DHT22;5009;50.656;7.188;2022-12-11T05:36:49;1.10;99.90
9941;DHT22;5009;50.656;7.188;2022-12-11T05:39:15;1.20;99.90
9941;DHT22;5009;50.656;7.188;2022-12-11T05:41:41;1.10;99.90
9941;DHT22;5009;50.656;7.188;2022-12-11T05:44:08;1.00;99.90
9941;DHT22;5009;50.656;7.188;2022-12-11T05:46:35;1.00;99.90
9941;DHT22;5009;50.656;7.188;2022-12-11T05:49:01;1.10;99.90
9941;DHT22;5009;50.656;7.188;2022-12-11T05:51:27;1.20;99.90
9941;DHT22;5009;50.656;7.188;2022-12-11T05:53:55;1.20;99.90
9941;DHT22;5009;50.656;7.188;2022-12-11T05:56:26;1.20;99.90
9941;DHT22;5009;50.656;7.188;2022-12-11T05:58:52;1.20;99.90
9941;DHT22;5009;50.656;7.188;2022-12-11T06:01:24;1.30;99.90
9941;DHT22;5009;50.656;7.188;2022-12-11T06:03:50;1.30;99.90
9941;DHT22;5009;50.656;7.188;2022-12-11T06:06:17;1.30;99.90
9941;DHT22;5009;50.656;7.188;2022-12-11T06:08:42;1.40;99.90
9941;DHT22;5009;50.656;7.188;2022-12-11T06:11:10;1.40;99.90
9941;DHT22;5009;50.656;7.188;2022-12-11T06:13:36;1.40;99.90
9941;DHT22;5009;50.656;7.188;2022-12-11T06:16:03;1.40;99.90
9941;DHT22;5009;50.656;7.188;2022-12-11T06:18:29;1.40;99.90
9941;DHT22;5009;50.656;7.188;2022-12-11T06:20:54;1.30;99.90
9941;DHT22;5009;50.656;7.188;2022-12-11T06:23:20;1.40;99.90
9941;DHT22;5009;50.656;7.188;2022-12-11T06:25:45;1.40;99.90
9941;DHT22;5009;50.656;7.188;2022-12-11T06:28:11;1.50;99.90
9941;DHT22;5009;50.656;7.188;2022-12-11T06:30:36;1.50;99.90
9941;DHT22;5009;50.656;7.188;2022-12-11T06:33:02;1.50;99.90
9941;DHT22;5009;50.656;7.188;2022-12-11T06:35:28;1.20;99.90
9941;DHT22;5009;50.656;7.188;2022-12-11T06:37:53;1.20;99.90
9941;DHT22;5009;50.656;7.188;2022-12-11T06:40:19;1.30;99.90
9941;DHT22;5009;50.656;7.188;2022-12-11T06:42:44;1.30;99.90
9941;DHT22;5009;50.656;7.188;2022-12-11T06:45:10;1.30;99.90
9941;DHT22;5009;50.656;7.188;2022-12-11T06:47:35;1.30;99.90
9941;DHT22;5009;50.656;7.188;2022-12-11T06:50:01;1.30;99.90
9941;DHT22;5009;50.656;7.188;2022-12-11T06:52:27;1.30;99.90
9941;DHT22;5009;50.656;7.188;2022-12-11T06:54:53;1.30;99.90
9941;DHT22;5009;50.656;7.188;2022-12-11T06:57:19;1.30;99.90
9941;DHT22;5009;50.656;7.188;2022-12-11T06:59:45;1.20;99.90
9941;DHT22;5009;50.656;7.188;2022-12-11T07:02:15;1.10;99.90
9941;DHT22;5009;50.656;7.188;2022-12-11T07:04:41;1.30;99.90
9941;DHT22;5009;50.656;7.188;2022-12-11T07:07:08;1.30;99.90
9941;DHT22;5009;50.656;7.188;2022-12-11T07:09:35;1.30;99.90
9941;DHT22;5009;50.656;7.188;2022-12-11T07:12:01;1.30;99.90
9941;DHT22;5009;50.656;7.188;2022-12-11T07:14:28;1.40;99.90
9941;DHT22;5009;50.656;7.188;2022-12-11T07:16:55;1.30;99.90
9941;DHT22;5009;50.656;7.188;2022-12-11T07:19:20;1.40;99.90
9941;DHT22;5009;50.656;7.188;2022-12-11T07:21:46;1.40;99.90
9941;DHT22;5009;50.656;7.188;2022-12-11T07:24:11;1.50;99.90
9941;DHT22;5009;50.656;7.188;2022-12-11T07:26:37;1.40;99.90
9941;DHT22;5009;50.656;7.188;2022-12-11T07:29:03;1.40;99.90
9941;DHT22;5009;50.656;7.188;2022-12-11T07:31:29;1.40;99.90
9941;DHT22;5009;50.656;7.188;2022-12-11T07:34:04;1.40;99.90
9941;DHT22;5009;50.656;7.188;2022-12-11T07:36:30;1.40;99.90
9941;DHT22;5009;50.656;7.188;2022-12-11T07:38:57;1.30;99.90
9941;DHT22;5009;50.656;7.188;2022-12-11T07:41:23;1.40;99.90
9941;DHT22;5009;50.656;7.188;2022-12-11T07:43:49;1.40;99.90
9941;DHT22;5009;50.656;7.188;2022-12-11T07:46:18;1.40;99.90
9941;DHT22;5009;50.656;7.188;2022-12-11T07:48:45;1.30;99.90
9941;DHT22;5009;50.656;7.188;2022-12-11T07:53:45;1.40;99.90
9941;DHT22;5009;50.656;7.188;2022-12-11T07:56:11;1.40;99.90
9941;DHT22;5009;50.656;7.188;2022-12-11T07:58:36;1.40;99.90
9941;DHT22;5009;50.656;7.188;2022-12-11T08:01:13;1.40;99.90
9941;DHT22;5009;50.656;7.188;2022-12-11T08:03:40;1.50;99.90
9941;DHT22;5009;50.656;7.188;2022-12-11T08:06:05;1.40;99.90
9941;DHT22;5009;50.656;7.188;2022-12-11T08:08:31;1.40;99.90
9941;DHT22;5009;50.656;7.188;2022-12-11T08:11:01;1.40;99.90
9941;DHT22;5009;50.656;7.188;2022-12-11T08:13:26;1.40;99.90
9941;DHT22;5009;50.656;7.188;2022-12-11T08:15:52;1.40;99.90
9941;DHT22;5009;50.656;7.188;2022-12-11T08:18:17;1.40;99.90
9941;DHT22;5009;50.656;7.188;2022-12-11T08:20:43;1.40;99.90
9941;DHT22;5009;50.656;7.188;2022-12-11T08:23:08;1.40;99.90
9941;DHT22;5009;50.656;7.188;2022-12-11T08:25:34;1.40;99.90
9941;DHT22;5009;50.656;7.188;2022-12-11T08:28:00;1.40;99.90
9941;DHT22;5009;50.656;7.188;2022-12-11T08:30:25;1.40;99.90
9941;DHT22;5009;50.656;7.188;2022-12-11T08:32:51;1.40;99.90
9941;DHT22;5009;50.656;7.188;2022-12-11T08:36:57;1.40;99.90
9941;DHT22;5009;50.656;7.188;2022-12-11T08:39:22;1.50;99.90
9941;DHT22;5009;50.656;7.188;2022-12-11T08:41:49;1.50;99.90
9941;DHT22;5009;50.656;7.188;2022-12-11T08:44:15;1.60;99.90
9941;DHT22;5009;50.656;7.188;2022-12-11T08:46:40;1.60;99.90
9941;DHT22;5009;50.656;7.188;2022-12-11T08:49:06;1.60;99.90
9941;DHT22;5009;50.656;7.188;2022-12-11T08:51:32;1.60;99.90
9941;DHT22;5009;50.656;7.188;2022-12-11T08:53:59;1.50;99.90
9941;DHT22;5009;50.656;7.188;2022-12-11T08:56:26;1.50;99.90
9941;DHT22;5009;50.656;7.188;2022-12-11T08:58:52;1.60;99.90
9941;DHT22;5009;50.656;7.188;2022-12-11T09:02:44;1.60;99.90
9941;DHT22;5009;50.656;7.188;2022-12-11T09:05:09;1.60;99.90
9941;DHT22;5009;50.656;7.188;2022-12-11T09:07:36;1.60;99.90
9941;DHT22;5009;50.656;7.188;2022-12-11T09:10:03;1.60;99.90
9941;DHT22;5009;50.656;7.188;2022-12-11T09:12:29;1.60;99.90
9941;DHT22;5009;50.656;7.188;2022-12-11T09:14:55;1.40;99.90
9941;DHT22;5009;50.656;7.188;2022-12-11T09:17:21;1.50;99.90
9941;DHT22;5009;50.656;7.188;2022-12-11T09:19:46;1.60;99.90
9941;DHT22;5009;50.656;7.188;2022-12-11T09:22:12;1.60;99.90
9941;DHT22;5009;50.656;7.188;2022-12-11T09:24:38;1.70;99.90
9941;DHT22;5009;50.656;7.188;2022-12-11T09:27:04;1.70;99.90
9941;DHT22;5009;50.656;7.188;2022-12-11T09:29:30;1.80;99.90
9941;DHT22;5009;50.656;7.188;2022-12-11T09:31:56;1.80;99.90
9941;DHT22;5009;50.656;7.188;2022-12-11T09:34:22;1.80;99.90
9941;DHT22;5009;50.656;7.188;2022-12-11T09:36:47;1.90;99.90
9941;DHT22;5009;50.656;7.188;2022-12-11T09:39:15;1.90;99.90
9941;DHT22;5009;50.656;7.188;2022-12-11T09:44:30;1.90;99.90
9941;DHT22;5009;50.656;7.188;2022-12-11T09:46:58;1.90;99.90
9941;DHT22;5009;50.656;7.188;2022-12-11T09:49:40;2.00;99.90
9941;DHT22;5009;50.656;7.188;2022-12-11T09:52:12;1.90;99.90
9941;DHT22;5009;50.656;7.188;2022-12-11T09:54:47;2.00;99.90
9941;DHT22;5009;50.656;7.188;2022-12-11T10:13:48;2.40;99.90
9941;DHT22;5009;50.656;7.188;2022-12-11T10:16:38;2.50;99.90
9941;DHT22;5009;50.656;7.188;2022-12-11T10:19:04;2.40;99.90
9941;DHT22;5009;50.656;7.188;2022-12-11T10:21:38;2.40;99.90
9941;DHT22;5009;50.656;7.188;2022-12-11T10:24:55;2.50;99.90
9941;DHT22;5009;50.656;7.188;2022-12-11T10:26:58;2.50;99.90
9941;DHT22;5009;50.656;7.188;2022-12-11T10:29:33;2.60;99.90
9941;DHT22;5009;50.656;7.188;2022-12-11T10:31:59;2.60;99.90
9941;DHT22;5009;50.656;7.188;2022-12-11T10:34:45;2.70;99.90
9941;DHT22;5009;50.656;7.188;2022-12-11T10:37:12;2.70;99.90
9941;DHT22;5009;50.656;7.188;2022-12-11T10:39:39;2.70;99.90
9941;DHT22;5009;50.656;7.188;2022-12-11T10:42:15;2.90;99.90
9941;DHT22;5009;50.656;7.188;2022-12-11T10:44:54;2.80;99.90
9941;DHT22;5009;50.656;7.188;2022-12-11T10:47:20;2.70;99.90
9941;DHT22;5009;50.656;7.188;2022-12-11T10:50:03;2.90;99.90
9941;DHT22;5009;50.656;7.188;2022-12-11T10:52:34;3.00;99.90
9941;DHT22;5009;50.656;7.188;2022-12-11T10:55:19;3.00;99.90
9941;DHT22;5009;50.656;7.188;2022-12-11T10:57:56;3.10;99.90
9941;DHT22;5009;50.656;7.188;2022-12-11T11:00:38;3.10;99.90
9941;DHT22;5009;50.656;7.188;2022-12-11T11:03:19;3.00;99.90
9941;DHT22;5009;50.656;7.188;2022-12-11T11:05:45;3.10;99.90
9941;DHT22;5009;50.656;7.188;2022-12-11T11:08:18;3.20;99.90
9941;DHT22;5009;50.656;7.188;2022-12-11T11:13:15;3.30;99.90
9941;DHT22;5009;50.656;7.188;2022-12-11T11:15:41;3.40;99.90
9941;DHT22;5009;50.656;7.188;2022-12-11T11:18:27;3.40;99.90
9941;DHT22;5009;50.656;7.188;2022-12-11T11:20:54;3.50;99.90
9941;DHT22;5009;50.656;7.188;2022-12-11T11:23:20;3.50;99.90
9941;DHT22;5009;50.656;7.188;2022-12-11T11:25:55;3.60;99.90
9941;DHT22;5009;50.656;7.188;2022-12-11T11:28:27;3.60;99.90
9941;DHT22;5009;50.656;7.188;2022-12-11T11:33:31;3.60;99.90
9941;DHT22;5009;50.656;7.188;2022-12-11T11:36:03;3.50;99.90
9941;DHT22;5009;50.656;7.188;2022-12-11T11:38:36;3.60;99.90
9941;DHT22;5009;50.656;7.188;2022-12-11T11:41:16;3.20;99.90
9941;DHT22;5009;50.656;7.188;2022-12-11T11:43:50;3.00;99.90
9941;DHT22;5009;50.656;7.188;2022-12-11T11:46:33;3.00;99.90
9941;DHT22;5009;50.656;7.188;2022-12-11T11:51:53;3.20;99.90
9941;DHT22;5009;50.656;7.188;2022-12-11T11:54:30;3.10;99.90
9941;DHT22;5009;50.656;7.188;2022-12-11T11:56:58;3.00;99.90
9941;DHT22;5009;50.656;7.188;2022-12-11T11:59:40;3.00;99.90
9941;DHT22;5009;50.656;7.188;2022-12-11T12:02:14;3.00;99.90
9941;DHT22;5009;50.656;7.188;2022-12-11T12:04:40;2.90;99.90
9941;DHT22;5009;50.656;7.188;2022-12-11T12:07:17;2.80;99.90
9941;DHT22;5009;50.656;7.188;2022-12-11T12:12:39;3.00;99.90
9941;DHT22;5009;50.656;7.188;2022-12-11T12:18:19;3.30;99.90
9941;DHT22;5009;50.656;7.188;2022-12-11T12:21:18;3.40;99.90
9941;DHT22;5009;50.656;7.188;2022-12-11T12:34:50;3.40;99.90
9941;DHT22;5009;50.656;7.188;2022-12-11T12:37:45;3.50;99.90
9941;DHT22;5009;50.656;7.188;2022-12-11T12:45:50;3.50;99.90
9941;DHT22;5009;50.656;7.188;2022-12-11T12:48:19;3.50;99.90
9941;DHT22;5009;50.656;7.188;2022-12-11T12:50:47;3.50;99.90
9941;DHT22;5009;50.656;7.188;2022-12-11T12:53:23;3.50;99.90
9941;DHT22;5009;50.656;7.188;2022-12-11T12:55:50;3.50;99.90
9941;DHT22;5009;50.656;7.188;2022-12-11T12:58:28;3.50;99.90
9941;DHT22;5009;50.656;7.188;2022-12-11T13:01:04;3.60;99.90
9941;DHT22;5009;50.656;7.188;2022-12-11T13:03:35;3.50;99.90
9941;DHT22;5009;50.656;7.188;2022-12-11T13:06:07;3.60;99.90
9941;DHT22;5009;50.656;7.188;2022-12-11T13:08:42;3.50;99.90
9941;DHT22;5009;50.656;7.188;2022-12-11T13:11:12;3.60;99.90
9941;DHT22;5009;50.656;7.188;2022-12-11T13:13:48;3.60;99.90
9941;DHT22;5009;50.656;7.188;2022-12-11T13:16:26;3.60;99.90
9941;DHT22;5009;50.656;7.188;2022-12-11T13:18:58;3.70;99.90
9941;DHT22;5009;50.656;7.188;2022-12-11T13:21:31;3.70;99.90
9941;DHT22;5009;50.656;7.188;2022-12-11T13:26:39;3.80;99.90
9941;DHT22;5009;50.656;7.188;2022-12-11T13:29:05;3.80;99.90
9941;DHT22;5009;50.656;7.188;2022-12-11T13:31:43;3.80;99.90
9941;DHT22;5009;50.656;7.188;2022-12-11T13:34:16;3.90;99.90
9941;DHT22;5009;50.656;7.188;2022-12-11T13:36:47;3.80;99.90
9941;DHT22;5009;50.656;7.188;2022-12-11T13:39:28;3.80;99.90
9941;DHT22;5009;50.656;7.188;2022-12-11T13:41:58;3.60;99.90
9941;DHT22;5009;50.656;7.188;2022-12-11T13:44:51;3.60;99.90
9941;DHT22;5009;50.656;7.188;2022-12-11T13:47:17;3.40;99.90
9941;DHT22;5009;50.656;7.188;2022-12-11T13:49:46;3.50;99.90
9941;DHT22;5009;50.656;7.188;2022-12-11T13:52:21;3.50;99.90
9941;DHT22;5009;50.656;7.188;2022-12-11T13:54:52;3.50;99.90
9941;DHT22;5009;50.656;7.188;2022-12-11T13:57:21;3.60;99.90
9941;DHT22;5009;50.656;7.188;2022-12-11T13:59:49;3.50;99.90
9941;DHT22;5009;50.656;7.188;2022-12-11T14:02:25;3.40;99.90
9941;DHT22;5009;50.656;7.188;2022-12-11T14:04:55;3.20;99.90
9941;DHT22;5009;50.656;7.188;2022-12-11T14:07:30;3.40;99.90
9941;DHT22;5009;50.656;7.188;2022-12-11T14:10:01;3.40;99.90
9941;DHT22;5009;50.656;7.188;2022-12-11T14:12:27;3.30;99.90
9941;DHT22;5009;50.656;7.188;2022-12-11T14:14:56;3.30;99.90
9941;DHT22;5009;50.656;7.188;2022-12-11T14:17:27;3.30;99.90
9941;DHT22;5009;50.656;7.188;2022-12-11T14:19:56;3.20;99.90
9941;DHT22;5009;50.656;7.188;2022-12-11T14:22:27;3.20;99.90
9941;DHT22;5009;50.656;7.188;2022-12-11T14:24:57;3.10;99.90
9941;DHT22;5009;50.656;7.188;2022-12-11T14:27:24;3.10;99.90
9941;DHT22;5009;50.656;7.188;2022-12-11T14:29:51;3.10;99.90
9941;DHT22;5009;50.656;7.188;2022-12-11T14:32:24;3.00;99.90
9941;DHT22;5009;50.656;7.188;2022-12-11T14:34:51;3.00;99.90
9941;DHT22;5009;50.656;7.188;2022-12-11T14:37:20;3.00;99.90
9941;DHT22;5009;50.656;7.188;2022-12-11T14:40:02;3.00;99.90
9941;DHT22;5009;50.656;7.188;2022-12-11T14:42:31;3.00;99.90
9941;DHT22;5009;50.656;7.188;2022-12-11T14:47:59;3.00;99.90
9941;DHT22;5009;50.656;7.188;2022-12-11T14:50:46;2.90;99.90
9941;DHT22;5009;50.656;7.188;2022-12-11T14:53:22;2.90;99.90
9941;DHT22;5009;50.656;7.188;2022-12-11T14:55:49;2.90;99.90
9941;DHT22;5009;50.656;7.188;2022-12-11T14:58:23;3.00;99.90
9941;DHT22;5009;50.656;7.188;2022-12-11T15:01:05;2.90;99.90
9941;DHT22;5009;50.656;7.188;2022-12-11T15:03:36;2.90;99.90
9941;DHT22;5009;50.656;7.188;2022-12-11T15:08:50;2.90;99.90
9941;DHT22;5009;50.656;7.188;2022-12-11T15:11:16;2.90;99.90
9941;DHT22;5009;50.656;7.188;2022-12-11T15:13:57;2.90;99.90
9941;DHT22;5009;50.656;7.188;2022-12-11T15:16:26;3.00;99.90
9941;DHT22;5009;50.656;7.188;2022-12-11T15:18:54;2.90;99.90
9941;DHT22;5009;50.656;7.188;2022-12-11T15:21:31;2.90;99.90
9941;DHT22;5009;50.656;7.188;2022-12-11T15:24:03;2.80;99.90
9941;DHT22;5009;50.656;7.188;2022-12-11T15:26:37;2.90;99.90
9941;DHT22;5009;50.656;7.188;2022-12-11T15:29:32;2.80;99.90
9941;DHT22;5009;50.656;7.188;2022-12-11T15:34:46;2.80;99.90
9941;DHT22;5009;50.656;7.188;2022-12-11T15:39:50;2.80;99.90
9941;DHT22;5009;50.656;7.188;2022-12-11T15:42:23;2.80;99.90
9941;DHT22;5009;50.656;7.188;2022-12-11T15:44:49;2.80;99.90
9941;DHT22;5009;50.656;7.188;2022-12-11T15:47:19;2.80;99.90
9941;DHT22;5009;50.656;7.188;2022-12-11T15:49:45;2.80;99.90
9941;DHT22;5009;50.656;7.188;2022-12-11T15:52:11;2.80;99.90
9941;DHT22;5009;50.656;7.188;2022-12-11T15:54:36;2.80;99.90
9941;DHT22;5009;50.656;7.188;2022-12-11T15:57:04;2.80;99.90
9941;DHT22;5009;50.656;7.188;2022-12-11T15:59:31;2.80;99.90
9941;DHT22;5009;50.656;7.188;2022-12-11T16:01:57;2.80;99.90
9941;DHT22;5009;50.656;7.188;2022-12-11T16:04:23;2.70;99.90
9941;DHT22;5009;50.656;7.188;2022-12-11T16:06:49;2.80;99.90
9941;DHT22;5009;50.656;7.188;2022-12-11T16:09:15;2.80;99.90
9941;DHT22;5009;50.656;7.188;2022-12-11T16:11:41;2.80;99.90
9941;DHT22;5009;50.656;7.188;2022-12-11T16:14:06;2.60;99.90
9941;DHT22;5009;50.656;7.188;2022-12-11T16:16:32;2.70;99.90
9941;DHT22;5009;50.656;7.188;2022-12-11T16:18:57;2.80;99.90
9941;DHT22;5009;50.656;7.188;2022-12-11T16:21:23;2.80;99.90
9941;DHT22;5009;50.656;7.188;2022-12-11T16:23:48;2.70;99.90
9941;DHT22;5009;50.656;7.188;2022-12-11T16:26:14;2.70;99.90
9941;DHT22;5009;50.656;7.188;2022-12-11T16:28:41;2.60;99.90
9941;DHT22;5009;50.656;7.188;2022-12-11T16:31:11;2.60;99.90
9941;DHT22;5009;50.656;7.188;2022-12-11T16:33:38;2.60;99.90
9941;DHT22;5009;50.656;7.188;2022-12-11T16:36:12;2.50;99.90
9941;DHT22;5009;50.656;7.188;2022-12-11T16:38:38;2.50;99.90
9941;DHT22;5009;50.656;7.188;2022-12-11T16:41:09;2.40;99.90
9941;DHT22;5009;50.656;7.188;2022-12-11T16:43:36;2.40;99.90
9941;DHT22;5009;50.656;7.188;2022-12-11T16:46:02;2.50;99.90
9941;DHT22;5009;50.656;7.188;2022-12-11T16:48:27;2.50;99.90
9941;DHT22;5009;50.656;7.188;2022-12-11T16:50:54;2.50;99.90
9941;DHT22;5009;50.656;7.188;2022-12-11T16:53:20;2.40;99.90
9941;DHT22;5009;50.656;7.188;2022-12-11T16:55:46;2.30;99.90
9941;DHT22;5009;50.656;7.188;2022-12-11T16:58:12;2.20;99.90
9941;DHT22;5009;50.656;7.188;2022-12-11T17:00:45;2.20;99.90
9941;DHT22;5009;50.656;7.188;2022-12-11T17:03:11;2.20;99.90
9941;DHT22;5009;50.656;7.188;2022-12-11T17:05:41;2.20;99.90
9941;DHT22;5009;50.656;7.188;2022-12-11T17:08:07;2.20;99.90
9941;DHT22;5009;50.656;7.188;2022-12-11T17:10:33;2.20;99.90
9941;DHT22;5009;50.656;7.188;2022-12-11T17:12:58;2.10;99.90
9941;DHT22;5009;50.656;7.188;2022-12-11T17:15:24;2.20;99.90
9941;DHT22;5009;50.656;7.188;2022-12-11T17:17:50;2.20;99.90
9941;DHT22;5009;50.656;7.188;2022-12-11T17:20:15;2.20;99.90
9941;DHT22;5009;50.656;7.188;2022-12-11T17:22:42;2.20;99.90
9941;DHT22;5009;50.656;7.188;2022-12-11T17:25:08;2.10;99.90
9941;DHT22;5009;50.656;7.188;2022-12-11T17:27:33;2.10;99.90
9941;DHT22;5009;50.656;7.188;2022-12-11T17:29:59;2.10;99.90
9941;DHT22;5009;50.656;7.188;2022-12-11T17:32:24;2.10;99.90
9941;DHT22;5009;50.656;7.188;2022-12-11T17:34:50;2.20;99.90
9941;DHT22;5009;50.656;7.188;2022-12-11T17:37:16;2.20;99.90
9941;DHT22;5009;50.656;7.188;2022-12-11T17:39:42;2.30;99.90
9941;DHT22;5009;50.656;7.188;2022-12-11T17:42:08;2.40;99.90
9941;DHT22;5009;50.656;7.188;2022-12-11T17:44:35;2.40;99.90
9941;DHT22;5009;50.656;7.188;2022-12-11T17:47:00;2.40;99.90
9941;DHT22;5009;50.656;7.188;2022-12-11T17:49:26;2.30;99.90
9941;DHT22;5009;50.656;7.188;2022-12-11T17:51:52;2.30;99.90
9941;DHT22;5009;50.656;7.188;2022-12-11T17:54:20;2.40;99.90
9941;DHT22;5009;50.656;7.188;2022-12-11T17:56:46;2.30;99.90
9941;DHT22;5009;50.656;7.188;2022-12-11T17:59:12;2.20;99.90
9941;DHT22;5009;50.656;7.188;2022-12-11T18:01:37;2.20;99.90
9941;DHT22;5009;50.656;7.188;2022-12-11T18:04:03;2.20;99.90
9941;DHT22;5009;50.656;7.188;2022-12-11T18:06:29;2.20;99.90
9941;DHT22;5009;50.656;7.188;2022-12-11T18:08:55;2.10;99.90
9941;DHT22;5009;50.656;7.188;2022-12-11T18:11:22;1.90;99.90
9941;DHT22;5009;50.656;7.188;2022-12-11T18:13:49;2.00;99.90
9941;DHT22;5009;50.656;7.188;2022-12-11T18:16:18;2.00;99.90
9941;DHT22;5009;50.656;7.188;2022-12-11T18:18:45;1.90;99.90
9941;DHT22;5009;50.656;7.188;2022-12-11T18:21:17;2.00;99.90
9941;DHT22;5009;50.656;7.188;2022-12-11T18:23:43;2.00;99.90
9941;DHT22;5009;50.656;7.188;2022-12-11T18:26:09;2.00;99.90
9941;DHT22;5009;50.656;7.188;2022-12-11T18:28:36;2.10;99.90
9941;DHT22;5009;50.656;7.188;2022-12-11T18:31:02;2.10;99.90
9941;DHT22;5009;50.656;7.188;2022-12-11T18:33:29;2.10;99.90
9941;DHT22;5009;50.656;7.188;2022-12-11T18:35:55;2.10;99.90
9941;DHT22;5009;50.656;7.188;2022-12-11T18:38:21;2.10;99.90
9941;DHT22;5009;50.656;7.188;2022-12-11T18:40:46;2.10;99.90
9941;DHT22;5009;50.656;7.188;2022-12-11T18:43:12;2.00;99.90
9941;DHT22;5009;50.656;7.188;2022-12-11T18:45:41;2.00;99.90
9941;DHT22;5009;50.656;7.188;2022-12-11T18:48:09;2.10;99.90
9941;DHT22;5009;50.656;7.188;2022-12-11T18:50:35;2.10;99.90
9941;DHT22;5009;50.656;7.188;2022-12-11T18:53:01;2.10;99.90
9941;DHT22;5009;50.656;7.188;2022-12-11T18:55:26;2.10;99.90
9941;DHT22;5009;50.656;7.188;2022-12-11T18:57:52;2.00;99.90
9941;DHT22;5009;50.656;7.188;2022-12-11T19:00:18;2.10;99.90
9941;DHT22;5009;50.656;7.188;2022-12-11T19:02:44;2.10;99.90
9941;DHT22;5009;50.656;7.188;2022-12-11T19:05:10;2.20;99.90
9941;DHT22;5009;50.656;7.188;2022-12-11T19:07:36;2.20;99.90
9941;DHT22;5009;50.656;7.188;2022-12-11T19:10:02;2.20;99.90
9941;DHT22;5009;50.656;7.188;2022-12-11T19:12:28;2.20;99.90
9941;DHT22;5009;50.656;7.188;2022-12-11T19:14:54;2.30;99.90
9941;DHT22;5009;50.656;7.188;2022-12-11T19:17:19;2.30;99.90
9941;DHT22;5009;50.656;7.188;2022-12-11T19:19:45;2.20;99.90
9941;DHT22;5009;50.656;7.188;2022-12-11T19:22:11;2.20;99.90
9941;DHT22;5009;50.656;7.188;2022-12-11T19:24:37;2.20;99.90
9941;DHT22;5009;50.656;7.188;2022-12-11T19:27:03;2.20;99.90
9941;DHT22;5009;50.656;7.188;2022-12-11T19:29:29;2.20;99.90
9941;DHT22;5009;50.656;7.188;2022-12-11T19:31:58;2.20;99.90
9941;DHT22;5009;50.656;7.188;2022-12-11T19:34:25;2.10;99.90
9941;DHT22;5009;50.656;7.188;2022-12-11T19:36:51;2.10;99.90
9941;DHT22;5009;50.656;7.188;2022-12-11T19:39:17;2.00;99.90
9941;DHT22;5009;50.656;7.188;2022-12-11T19:42:46;2.00;99.90
9941;DHT22;5009;50.656;7.188;2022-12-11T19:45:11;2.00;99.90
9941;DHT22;5009;50.656;7.188;2022-12-11T19:47:37;2.00;99.90
9941;DHT22;5009;50.656;7.188;2022-12-11T19:50:02;2.00;99.90
9941;DHT22;5009;50.656;7.188;2022-12-11T19:52:28;2.00;99.90
9941;DHT22;5009;50.656;7.188;2022-12-11T19:54:54;2.00;99.90
9941;DHT22;5009;50.656;7.188;2022-12-11T19:57:19;1.90;99.90
9941;DHT22;5009;50.656;7.188;2022-12-11T19:59:45;1.90;99.90
9941;DHT22;5009;50.656;7.188;2022-12-11T20:02:11;1.90;99.90
9941;DHT22;5009;50.656;7.188;2022-12-11T20:04:36;1.90;99.90
9941;DHT22;5009;50.656;7.188;2022-12-11T20:07:02;1.90;99.90
9941;DHT22;5009;50.656;7.188;2022-12-11T20:09:28;1.90;99.90
9941;DHT22;5009;50.656;7.188;2022-12-11T20:11:54;1.90;99.90
9941;DHT22;5009;50.656;7.188;2022-12-11T20:14:23;1.90;99.90
9941;DHT22;5009;50.656;7.188;2022-12-11T20:16:50;1.80;99.90
9941;DHT22;5009;50.656;7.188;2022-12-11T20:19:19;1.80;99.90
9941;DHT22;5009;50.656;7.188;2022-12-11T20:21:54;1.80;99.90
9941;DHT22;5009;50.656;7.188;2022-12-11T20:24:20;1.80;99.90
9941;DHT22;5009;50.656;7.188;2022-12-11T20:26:46;1.80;99.90
9941;DHT22;5009;50.656;7.188;2022-12-11T20:29:12;1.70;99.90
9941;DHT22;5009;50.656;7.188;2022-12-11T20:31:37;1.70;99.90
9941;DHT22;5009;50.656;7.188;2022-12-11T20:34:04;1.70;99.90
9941;DHT22;5009;50.656;7.188;2022-12-11T20:36:30;1.70;99.90
9941;DHT22;5009;50.656;7.188;2022-12-11T20:38:55;1.70;99.90
9941;DHT22;5009;50.656;7.188;2022-12-11T20:41:22;1.70;99.90
9941;DHT22;5009;50.656;7.188;2022-12-11T20:43:49;1.70;99.90
9941;DHT22;5009;50.656;7.188;2022-12-11T20:46:16;1.70;99.90
9941;DHT22;5009;50.656;7.188;2022-12-11T20:48:43;1.80;99.90
9941;DHT22;5009;50.656;7.188;2022-12-11T20:51:11;1.80;99.90
9941;DHT22;5009;50.656;7.188;2022-12-11T20:53:37;1.80;99.90
9941;DHT22;5009;50.656;7.188;2022-12-11T20:56:15;1.80;99.90
9941;DHT22;5009;50.656;7.188;2022-12-11T20:58:41;1.70;99.90
9941;DHT22;5009;50.656;7.188;2022-12-11T21:01:16;1.70;99.90
9941;DHT22;5009;50.656;7.188;2022-12-11T21:03:42;1.80;99.90
9941;DHT22;5009;50.656;7.188;2022-12-11T21:06:24;1.80;99.90
9941;DHT22;5009;50.656;7.188;2022-12-11T21:08:50;1.70;99.90
9941;DHT22;5009;50.656;7.188;2022-12-11T21:11:16;1.80;99.90
9941;DHT22;5009;50.656;7.188;2022-12-11T21:13:42;1.80;99.90
9941;DHT22;5009;50.656;7.188;2022-12-11T21:16:08;1.90;99.90
9941;DHT22;5009;50.656;7.188;2022-12-11T21:18:34;1.90;99.90
9941;DHT22;5009;50.656;7.188;2022-12-11T21:21:01;1.90;99.90
9941;DHT22;5009;50.656;7.188;2022-12-11T21:23:26;1.90;99.90
9941;DHT22;5009;50.656;7.188;2022-12-11T21:25:52;2.00;99.90
9941;DHT22;5009;50.656;7.188;2022-12-11T21:28:18;1.90;99.90
9941;DHT22;5009;50.656;7.188;2022-12-11T21:30:45;1.90;99.90
9941;DHT22;5009;50.656;7.188;2022-12-11T21:33:10;1.90;99.90
9941;DHT22;5009;50.656;7.188;2022-12-11T21:35:36;1.90;99.90
9941;DHT22;5009;50.656;7.188;2022-12-11T21:38:01;1.90;99.90
9941;DHT22;5009;50.656;7.188;2022-12-11T21:40:28;1.80;99.90
9941;DHT22;5009;50.656;7.188;2022-12-11T21:42:54;1.90;99.90
9941;DHT22;5009;50.656;7.188;2022-12-11T21:45:19;1.90;99.90
9941;DHT22;5009;50.656;7.188;2022-12-11T21:47:45;1.90;99.90
9941;DHT22;5009;50.656;7.188;2022-12-11T21:50:10;1.90;99.90
9941;DHT22;5009;50.656;7.188;2022-12-11T21:52:37;1.90;99.90
9941;DHT22;5009;50.656;7.188;2022-12-11T21:55:03;1.90;99.90
9941;DHT22;5009;50.656;7.188;2022-12-11T21:57:29;1.80;99.90
9941;DHT22;5009;50.656;7.188;2022-12-11T21:59:54;1.80;99.90
